Time;durP1;ratioP1;P1;durP2;ratioP2;P2;SDS_P1;SDS_P2;PMS_P1;PMS_P2;Temp;Humidity;BMP_temperature;BMP_pressure;BME280_temperature;BME280_humidity;BME280_pressure;Samples;Min_cycle;Max_cycle;Signal;HPM_P1;HPM_P2
2023/05/01 00:01:17;;;;;;;24.57;19.87;;;5.70;81.30;;;;;;4975850;28;20316;-88
2023/05/01 00:03:46;;;;;;;34.37;31.17;;;5.70;81.30;;;;;;4975663;28;20179;-87
2023/05/01 00:06:11;;;;;;;32.50;29.60;;;5.70;81.20;;;;;;4976759;28;20171;-87
2023/05/01 00:08:37;;;;;;;33.23;29.93;;;5.70;81.10;;;;;;4975548;28;20175;-87
2023/05/01 00:11:03;;;;;;;33.80;30.57;;;5.60;81.10;;;;;;4975621;28;20174;-87
2023/05/01 00:13:29;;;;;;;34.27;30.83;;;5.60;81.00;;;;;;4975527;28;20189;-87
2023/05/01 00:15:55;;;;;;;33.33;29.97;;;5.50;81.00;;;;;;4976696;28;20174;-88
2023/05/01 00:18:21;;;;;;;26.83;20.10;;;5.50;81.20;;;;;;4975743;28;20576;-87
2023/05/01 00:20:46;;;;;;;29.87;21.23;;;5.50;81.20;;;;;;4976250;28;20633;-87
2023/05/01 00:23:12;;;;;;;24.70;20.07;;;5.50;81.10;;;;;;4975499;28;20185;-87
2023/05/01 00:25:38;;;;;;;22.83;19.67;;;5.50;80.90;;;;;;4975260;28;20206;-87
2023/05/01 00:28:05;;;;;;;25.20;20.10;;;5.50;80.90;;;;;;4976393;28;20255;-87
2023/05/01 00:30:32;;;;;;;25.90;19.80;;;5.40;80.90;;;;;;4976345;28;20171;-87
2023/05/01 00:32:58;;;;;;;19.87;17.67;;;5.40;80.80;;;;;;4976753;28;20243;-87
2023/05/01 00:35:24;;;;;;;22.40;19.27;;;5.30;80.80;;;;;;4976169;28;20179;-87
2023/05/01 00:37:50;;;;;;;25.47;19.77;;;5.20;81.20;;;;;;4975191;28;20208;-87
2023/05/01 00:40:15;;;;;;;23.03;18.80;;;5.20;81.40;;;;;;4975095;28;20277;-87
2023/05/01 00:42:41;;;;;;;22.30;18.93;;;5.10;81.50;;;;;;4975012;28;20183;-87
2023/05/01 00:45:07;;;;;;;25.90;19.47;;;5.00;81.90;;;;;;4974893;28;20202;-88
2023/05/01 00:47:36;;;;;;;25.93;19.63;;;5.00;82.10;;;;;;4974905;28;20624;-87
2023/05/01 00:50:02;;;;;;;32.53;29.07;;;5.00;82.10;;;;;;4976014;28;20237;-87
2023/05/01 00:52:28;;;;;;;33.73;30.03;;;4.90;82.30;;;;;;4974871;28;20179;-88
2023/05/01 00:54:54;;;;;;;33.63;30.60;;;4.90;82.40;;;;;;4974853;28;20186;-87
2023/05/01 00:57:20;;;;;;;35.93;31.57;;;4.90;82.40;;;;;;4974779;28;20203;-87
2023/05/01 00:59:47;;;;;;;26.50;21.60;;;4.90;82.40;;;;;;4974958;28;20548;-87
2023/05/01 01:02:13;;;;;;;27.67;20.60;;;4.90;82.30;;;;;;4975874;28;20179;-87
2023/05/01 01:04:42;;;;;;;35.63;32.03;;;4.90;82.30;;;;;;4974691;28;20255;-87
2023/05/01 01:07:40;;;;;;;35.83;32.10;;;4.90;82.30;;;;;;4974778;28;20602;-87
2023/05/01 01:10:09;;;;;;;37.70;33.90;;;4.90;82.30;;;;;;4970192;28;20232;-87
2023/05/01 01:13:06;;;;;;;35.33;31.87;;;4.80;82.20;;;;;;4990738;28;20174;-86
2023/05/01 01:15:41;;;;;;;29.47;20.27;;;4.80;82.20;;;;;;4973153;28;20197;-88
2023/05/01 01:18:23;;;;;;;24.30;20.47;;;4.80;82.30;;;;;;4974223;28;20209;-88
2023/05/01 01:21:05;;;;;;;33.97;30.63;;;4.80;82.30;;;;;;4974334;28;20186;-88
2023/05/01 01:23:52;;;;;;;33.87;30.70;;;4.70;82.10;;;;;;4974306;28;20201;-88
2023/05/01 01:26:55;;;;;;;34.07;30.93;;;4.70;82.00;;;;;;4974248;28;20203;-87
2023/05/01 01:29:58;;;;;;;33.77;30.43;;;4.60;82.20;;;;;;4975325;28;20264;-88
2023/05/01 01:32:48;;;;;;;26.10;19.77;;;4.60;82.10;;;;;;4975157;28;20240;-87
2023/05/01 01:35:19;;;;;;;34.30;30.90;;;4.60;82.10;;;;;;4990229;28;20249;-86
2023/05/01 01:38:03;;;;;;;34.63;31.33;;;4.60;82.00;;;;;;4975412;28;20221;-87
2023/05/01 01:40:35;;;;;;;34.57;31.50;;;4.60;81.90;;;;;;4990924;28;20198;-87
2023/05/01 01:43:09;;;;;;;34.23;30.67;;;4.60;81.80;;;;;;4975192;28;20172;-87
2023/05/01 01:45:52;;;;;;;21.10;18.90;;;4.60;81.80;;;;;;4973755;28;20201;-87
2023/05/01 01:48:25;;;;;;;21.70;19.40;;;4.60;81.90;;;;;;4975050;28;20197;-87
2023/05/01 01:50:53;;;;;;;26.27;19.97;;;4.50;81.80;;;;;;4973877;28;20566;-87
2023/05/01 01:53:20;;;;;;;26.07;19.23;;;4.40;81.80;;;;;;4974951;28;20272;-87
2023/05/01 01:55:49;;;;;;;22.37;19.27;;;4.40;81.80;;;;;;4974859;28;20229;-87
2023/05/01 01:58:16;;;;;;;22.33;19.47;;;4.40;81.90;;;;;;4989890;28;20255;-87
2023/05/01 02:00:44;;;;;;;21.63;19.10;;;4.40;81.90;;;;;;4973672;28;20183;-87
2023/05/01 02:03:10;;;;;;;21.07;18.83;;;4.30;82.10;;;;;;4973534;28;20185;-87
2023/05/01 02:05:39;;;;;;;25.73;19.50;;;4.30;82.30;;;;;;4974668;28;20194;-87
2023/05/01 02:08:05;;;;;;;30.03;20.40;;;4.40;82.30;;;;;;4989618;28;20336;-87
2023/05/01 02:10:32;;;;;;;33.20;20.30;;;4.30;82.30;;;;;;4973522;28;20174;-87
2023/05/01 02:13:00;;;;;;;23.70;20.10;;;4.20;82.60;;;;;;4974722;28;20185;-86
2023/05/01 02:15:27;;;;;;;23.03;19.30;;;4.20;82.80;;;;;;4973845;28;20608;-87
2023/05/01 02:17:53;;;;;;;25.00;20.30;;;4.20;82.90;;;;;;4972934;28;20248;-87
2023/05/01 02:20:20;;;;;;;23.80;19.20;;;4.10;83.30;;;;;;4974645;28;20354;-87
2023/05/01 02:22:47;;;;;;;25.50;20.73;;;4.10;83.50;;;;;;4973494;28;20177;-87
2023/05/01 02:25:14;;;;;;;32.73;29.57;;;4.10;83.80;;;;;;4973245;28;20648;-87
2023/05/01 02:27:44;;;;;;;33.90;30.57;;;4.10;83.80;;;;;;4973460;28;20202;-87
2023/05/01 02:30:10;;;;;;;33.90;28.97;;;4.10;84.00;;;;;;4974489;28;20261;-87
2023/05/01 02:32:36;;;;;;;34.90;31.30;;;4.10;84.10;;;;;;4974377;28;20195;-87
2023/05/01 02:35:02;;;;;;;21.77;19.20;;;4.20;84.30;;;;;;4973259;28;20228;-87
2023/05/01 02:37:29;;;;;;;21.03;18.23;;;4.20;84.20;;;;;;4973151;28;20291;-87
2023/05/01 02:39:55;;;;;;;32.57;29.37;;;4.10;84.10;;;;;;4973296;28;20216;-87
2023/05/01 02:42:23;;;;;;;34.07;31.00;;;4.10;84.10;;;;;;4973072;28;20174;-87
2023/05/01 02:45:02;;;;;;;34.23;31.13;;;4.10;84.00;;;;;;4973089;28;20660;-87
2023/05/01 02:47:30;;;;;;;33.77;30.30;;;4.20;84.00;;;;;;4973009;28;20576;-86
2023/05/01 02:49:58;;;;;;;25.40;19.10;;;4.10;84.00;;;;;;4974258;28;20603;-87
2023/05/01 02:52:23;;;;;;;20.87;18.57;;;4.10;83.80;;;;;;4973026;28;20652;-87
2023/05/01 02:54:50;;;;;;;34.43;30.20;;;4.10;83.70;;;;;;4974189;28;20213;-87
2023/05/01 02:57:19;;;;;;;33.13;30.07;;;4.00;83.80;;;;;;4974176;28;20198;-87
2023/05/01 02:59:45;;;;;;;32.53;29.57;;;3.90;83.70;;;;;;4974180;28;20173;-87
2023/05/01 03:02:10;;;;;;;31.90;27.87;;;3.70;83.90;;;;;;4973002;28;20188;-87
2023/05/01 03:04:36;;;;;;;25.77;19.57;;;3.70;84.50;;;;;;4972766;28;20705;-86
2023/05/01 03:07:03;;;;;;;23.33;18.47;;;3.60;84.90;;;;;;4972896;28;20196;-87
2023/05/01 03:09:30;;;;;;;27.00;18.40;;;3.50;85.30;;;;;;4974171;28;20259;-87
2023/05/01 03:11:56;;;;;;;31.73;28.73;;;3.40;85.70;;;;;;4972952;28;20182;-87
2023/05/01 03:14:21;;;;;;;31.77;28.50;;;3.50;86.00;;;;;;4972879;28;20181;-86
2023/05/01 03:16:47;;;;;;;32.17;28.93;;;3.60;86.10;;;;;;4972796;28;20206;-87
2023/05/01 03:19:12;;;;;;;30.47;27.23;;;3.70;85.90;;;;;;4972755;28;20271;-87
2023/05/01 03:21:38;;;;;;;23.33;16.80;;;3.70;85.80;;;;;;4972844;28;20266;-87
2023/05/01 03:24:04;;;;;;;22.40;16.27;;;3.50;85.90;;;;;;4972879;28;20196;-86
2023/05/01 03:26:30;;;;;;;20.53;16.73;;;3.50;86.10;;;;;;4974163;28;20237;-86
2023/05/01 03:28:55;;;;;;;23.90;15.80;;;3.50;86.30;;;;;;4973901;28;20167;-87
2023/05/01 03:31:21;;;;;;;19.77;16.03;;;3.40;86.50;;;;;;4977016;28;20182;-86
2023/05/01 03:33:47;;;;;;;27.27;16.90;;;3.40;86.70;;;;;;4976292;28;20701;-87
2023/05/01 03:36:12;;;;;;;20.03;16.20;;;3.50;87.00;;;;;;4976203;28;20621;-87
2023/05/01 03:38:38;;;;;;;21.43;16.30;;;3.50;87.10;;;;;;4977681;28;20178;-87
2023/05/01 03:41:04;;;;;;;19.70;16.47;;;3.60;87.10;;;;;;4977621;28;20649;-87
2023/05/01 03:43:30;;;;;;;22.77;15.10;;;3.50;87.20;;;;;;4976061;28;20186;-87
2023/05/01 03:45:57;;;;;;;19.33;16.30;;;3.60;87.30;;;;;;4976003;28;20194;-87
2023/05/01 03:48:23;;;;;;;18.77;15.30;;;3.60;87.30;;;;;;4977172;28;20197;-87
2023/05/01 03:50:49;;;;;;;21.60;16.00;;;3.60;87.30;;;;;;4977220;28;20317;-87
2023/05/01 03:53:15;;;;;;;17.70;15.07;;;3.50;87.20;;;;;;4975943;28;20656;-87
2023/05/01 03:55:41;;;;;;;30.30;22.17;;;3.50;87.30;;;;;;4975804;28;20267;-87
2023/05/01 03:58:07;;;;;;;24.83;22.33;;;3.60;87.40;;;;;;4975695;28;20681;-87
2023/05/01 04:00:33;;;;;;;24.40;21.93;;;3.60;87.30;;;;;;4975879;28;20653;-87
2023/05/01 04:02:58;;;;;;;24.27;21.70;;;3.60;87.30;;;;;;4975740;28;20230;-87
2023/05/01 04:05:24;;;;;;;17.87;14.13;;;3.60;87.30;;;;;;4976924;28;20202;-87
2023/05/01 04:07:49;;;;;;;16.93;13.30;;;3.60;87.20;;;;;;4976978;28;20710;-87
2023/05/01 04:10:16;;;;;;;22.60;20.60;;;3.70;87.20;;;;;;4975778;28;20206;-87
2023/05/01 04:12:42;;;;;;;25.67;21.27;;;3.70;87.10;;;;;;4975544;28;20172;-86
2023/05/01 04:15:08;;;;;;;23.10;20.80;;;3.70;87.00;;;;;;4975528;28;20237;-87
2023/05/01 04:17:35;;;;;;;22.47;20.13;;;3.90;87.00;;;;;;4975531;28;20211;-87
2023/05/01 04:20:01;;;;;;;18.63;13.20;;;4.00;86.90;;;;;;4976670;28;20176;-87
2023/05/01 04:22:26;;;;;;;19.87;12.63;;;4.10;86.90;;;;;;4975611;28;20212;-87
2023/05/01 04:24:53;;;;;;;23.53;19.67;;;4.10;86.80;;;;;;4975626;28;20203;-87
2023/05/01 04:27:18;;;;;;;20.93;18.90;;;4.20;86.70;;;;;;4975542;28;20208;-87
2023/05/01 04:29:44;;;;;;;20.60;18.17;;;4.30;86.60;;;;;;4975276;28;20192;-87
2023/05/01 04:32:09;;;;;;;21.93;19.67;;;4.30;86.40;;;;;;4975152;28;20201;-87
2023/05/01 04:34:35;;;;;;;13.57;11.90;;;4.40;86.40;;;;;;4975201;28;20228;-87
2023/05/01 04:37:02;;;;;;;17.70;12.57;;;4.40;86.30;;;;;;4976468;28;20257;-87
2023/05/01 04:39:27;;;;;;;20.70;18.53;;;4.40;86.10;;;;;;4975071;28;20180;-87
2023/05/01 04:41:53;;;;;;;22.20;19.30;;;4.50;86.10;;;;;;4975071;28;20192;-87
2023/05/01 04:44:19;;;;;;;20.00;17.93;;;4.50;86.00;;;;;;4974875;28;20757;-87
2023/05/01 04:46:45;;;;;;;21.27;19.10;;;4.60;85.90;;;;;;4976400;28;20197;-87
2023/05/01 04:49:10;;;;;;;15.93;11.30;;;4.60;85.90;;;;;;4974881;28;20270;-87
2023/05/01 04:51:36;;;;;;;18.63;11.97;;;4.70;85.90;;;;;;4976083;28;20246;-87
2023/05/01 04:54:03;;;;;;;13.83;11.30;;;4.80;86.00;;;;;;4975997;28;20187;-87
2023/05/01 04:56:29;;;;;;;13.27;10.77;;;4.80;86.00;;;;;;4974792;28;20198;-87
2023/05/01 04:58:54;;;;;;;15.73;11.67;;;4.90;86.10;;;;;;4976051;28;20184;-87
2023/05/01 05:01:20;;;;;;;16.97;11.23;;;5.00;86.30;;;;;;4975866;28;20197;-87
2023/05/01 05:03:45;;;;;;;18.80;11.87;;;5.00;86.50;;;;;;4975764;28;20253;-87
2023/05/01 05:06:11;;;;;;;20.17;12.60;;;5.00;86.70;;;;;;4974591;28;20188;-87
2023/05/01 05:08:36;;;;;;;16.57;11.27;;;5.00;86.90;;;;;;4975608;28;20182;-87
2023/05/01 05:11:02;;;;;;;18.77;10.70;;;5.10;87.00;;;;;;4975759;28;20178;-87
2023/05/01 05:13:28;;;;;;;17.63;11.13;;;5.20;87.00;;;;;;4974487;28;20181;-87
2023/05/01 05:15:53;;;;;;;12.47;10.47;;;5.30;87.10;;;;;;4974379;28;20178;-87
2023/05/01 05:18:19;;;;;;;16.60;10.57;;;5.30;87.10;;;;;;4974277;28;20226;-87
2023/05/01 05:20:45;;;;;;;14.40;10.53;;;5.40;87.10;;;;;;4974576;28;20623;-87
2023/05/01 05:23:11;;;;;;;19.63;16.33;;;5.50;87.20;;;;;;4974335;28;20273;-87
2023/05/01 05:25:36;;;;;;;19.50;17.40;;;5.60;87.20;;;;;;4974123;28;20293;-87
2023/05/01 05:28:02;;;;;;;18.83;16.37;;;5.80;87.20;;;;;;4990389;28;20586;-87
2023/05/01 05:30:28;;;;;;;23.37;17.23;;;5.90;86.90;;;;;;4975376;28;20218;-86
2023/05/01 05:32:54;;;;;;;23.23;17.70;;;6.00;86.50;;;;;;4974357;28;20187;-87
2023/05/01 05:35:20;;;;;;;18.87;16.97;;;6.10;86.40;;;;;;4974064;28;20188;-87
2023/05/01 05:37:45;;;;;;;19.60;17.73;;;6.30;86.00;;;;;;4974065;28;20229;-87
2023/05/01 05:40:11;;;;;;;20.00;18.03;;;6.40;85.60;;;;;;4975307;28;20175;-87
2023/05/01 05:42:37;;;;;;;17.23;12.50;;;6.50;85.10;;;;;;4973875;28;20206;-87
2023/05/01 05:45:03;;;;;;;15.80;12.53;;;6.60;84.60;;;;;;4973948;28;20797;-87
2023/05/01 05:47:28;;;;;;;24.30;18.37;;;6.70;84.30;;;;;;4975184;28;20190;-87
2023/05/01 05:49:54;;;;;;;23.03;18.73;;;6.80;84.10;;;;;;4974917;28;20240;-87
2023/05/01 05:52:20;;;;;;;21.10;18.97;;;6.80;83.90;;;;;;4973271;28;20699;-87
2023/05/01 05:54:46;;;;;;;21.23;18.80;;;7.00;83.80;;;;;;4973964;28;20776;-87
2023/05/01 05:57:11;;;;;;;24.87;20.67;;;7.10;83.80;;;;;;4973879;28;20258;-87
2023/05/01 05:59:37;;;;;;;21.77;19.63;;;7.20;83.00;;;;;;4989908;28;20178;-86
2023/05/01 06:02:03;;;;;;;21.50;19.60;;;7.30;81.80;;;;;;4973691;28;20190;-87
2023/05/01 06:04:28;;;;;;;14.87;12.37;;;7.40;81.70;;;;;;4974887;28;20204;-87
2023/05/01 06:06:54;;;;;;;13.40;11.87;;;7.50;81.40;;;;;;4973452;28;20199;-87
2023/05/01 06:09:20;;;;;;;21.63;19.53;;;7.70;81.20;;;;;;4974703;28;20588;-87
2023/05/01 06:11:46;;;;;;;23.40;21.00;;;7.80;81.30;;;;;;4973578;28;20174;-87
2023/05/01 06:14:12;;;;;;;20.87;17.90;;;7.80;81.00;;;;;;4973474;28;20175;-87
2023/05/01 06:16:37;;;;;;;21.93;17.87;;;8.10;81.60;;;;;;4974551;28;20199;-87
2023/05/01 06:19:03;;;;;;;19.80;17.90;;;8.10;81.30;;;;;;4973421;28;20210;-87
2023/05/01 06:21:31;;;;;;;19.63;17.77;;;8.30;81.40;;;;;;4973513;28;20179;-87
2023/05/01 06:23:56;;;;;;;19.10;10.73;;;8.40;81.30;;;;;;4973281;28;20214;-87
2023/05/01 06:26:22;;;;;;;13.80;11.07;;;8.50;80.70;;;;;;4974525;28;20213;-87
2023/05/01 06:28:48;;;;;;;19.23;16.73;;;8.70;79.70;;;;;;4973477;28;20604;-87
2023/05/01 06:31:13;;;;;;;19.00;17.43;;;8.80;79.70;;;;;;4973304;28;20187;-87
2023/05/01 06:33:39;;;;;;;19.90;17.93;;;8.90;79.10;;;;;;4973159;28;20198;-87
2023/05/01 06:36:05;;;;;;;20.40;18.47;;;9.20;78.70;;;;;;4973150;28;20181;-86
2023/05/01 06:38:31;;;;;;;20.77;18.57;;;9.20;76.70;;;;;;4973257;28;20183;-87
2023/05/01 06:40:57;;;;;;;13.77;10.80;;;9.20;75.50;;;;;;4973088;28;20656;-87
2023/05/01 06:43:26;;;;;;;19.47;11.63;;;9.40;76.40;;;;;;4973506;28;20189;-88
2023/05/01 06:45:52;;;;;;;13.00;9.03;;;9.40;76.20;;;;;;4973026;28;20211;-87
2023/05/01 06:48:18;;;;;;;11.00;9.90;;;9.60;75.20;;;;;;4973162;28;20194;-87
2023/05/01 06:50:43;;;;;;;11.60;10.67;;;9.60;74.20;;;;;;4972982;28;20532;-87
2023/05/01 06:53:09;;;;;;;12.43;11.23;;;9.50;73.00;;;;;;4973117;28;20555;-87
2023/05/01 06:55:34;;;;;;;11.47;10.40;;;9.50;73.10;;;;;;4973106;28;20183;-87
2023/05/01 06:58:00;;;;;;;14.23;11.43;;;9.60;70.50;;;;;;4974264;28;20245;-87
2023/05/01 07:00:25;;;;;;;16.03;12.30;;;9.60;71.50;;;;;;4973297;28;20563;-87
2023/05/01 07:02:51;;;;;;;12.57;11.53;;;9.70;72.70;;;;;;4973008;28;20183;-87
2023/05/01 07:05:17;;;;;;;14.37;12.40;;;9.80;71.00;;;;;;4975934;28;20206;-86
2023/05/01 07:07:43;;;;;;;15.17;13.50;;;9.80;69.50;;;;;;4978216;28;20661;-87
2023/05/01 07:10:09;;;;;;;15.97;14.17;;;9.90;69.40;;;;;;4977179;28;20179;-87
2023/05/01 07:12:34;;;;;;;14.30;13.03;;;9.90;69.60;;;;;;4976717;28;20186;-88
2023/05/01 07:15:00;;;;;;;21.33;19.17;;;10.20;69.80;;;;;;4977992;28;20258;-87
2023/05/01 07:17:26;;;;;;;22.50;20.13;;;10.20;69.00;;;;;;4976607;28;20715;-87
2023/05/01 07:19:52;;;;;;;21.53;19.40;;;10.20;70.70;;;;;;4976670;28;20202;-87
2023/05/01 07:22:18;;;;;;;23.70;21.53;;;10.30;70.10;;;;;;4976481;28;20260;-88
2023/05/01 07:24:44;;;;;;;22.50;20.70;;;10.40;68.70;;;;;;4977630;28;20261;-88
2023/05/01 07:27:09;;;;;;;22.50;14.30;;;10.60;68.80;;;;;;4977522;28;20203;-88
2023/05/01 07:29:38;;;;;;;13.90;12.60;;;10.50;69.60;;;;;;4977534;28;20178;-88
2023/05/01 07:32:05;;;;;;;22.23;19.90;;;10.50;68.50;;;;;;4977530;28;20218;-87
2023/05/01 07:34:30;;;;;;;24.00;21.53;;;10.70;68.20;;;;;;4976326;28;20185;-88
2023/05/01 07:36:56;;;;;;;23.63;21.63;;;10.60;66.70;;;;;;4976217;28;20285;-87
2023/05/01 07:39:22;;;;;;;23.87;21.93;;;10.50;67.90;;;;;;4977460;28;20253;-87
2023/05/01 07:41:47;;;;;;;20.53;18.60;;;10.60;67.10;;;;;;4976153;28;20229;-87
2023/05/01 07:44:13;;;;;;;20.23;13.10;;;10.70;69.00;;;;;;4976007;28;20256;-87
2023/05/01 07:46:38;;;;;;;16.80;15.07;;;10.90;69.40;;;;;;4976031;28;20254;-87
2023/05/01 07:49:04;;;;;;;23.87;21.30;;;11.10;67.00;;;;;;4976040;28;20242;-87
2023/05/01 07:51:30;;;;;;;22.80;20.90;;;11.00;66.80;;;;;;4976055;28;20182;-87
2023/05/01 07:53:56;;;;;;;22.37;20.37;;;11.00;67.70;;;;;;4975905;28;20177;-88
2023/05/01 07:56:21;;;;;;;22.77;20.77;;;11.00;67.80;;;;;;4975800;28;20170;-87
2023/05/01 07:58:47;;;;;;;21.40;19.63;;;11.20;67.80;;;;;;4977068;28;20175;-87
2023/05/01 08:01:12;;;;;;;14.97;13.43;;;11.30;66.20;;;;;;4975922;28;20175;-88
2023/05/01 08:03:38;;;;;;;14.50;13.20;;;11.30;66.10;;;;;;4977028;28;20174;-87
2023/05/01 08:06:04;;;;;;;21.60;19.80;;;11.30;66.10;;;;;;4975644;28;20285;-87
2023/05/01 08:08:30;;;;;;;25.23;22.40;;;11.50;67.00;;;;;;4975621;28;20185;-88
2023/05/01 08:10:55;;;;;;;23.97;22.13;;;11.40;66.10;;;;;;4975760;28;20183;-88
2023/05/01 08:13:21;;;;;;;21.40;19.27;;;11.50;67.20;;;;;;4975652;28;20186;-88
2023/05/01 08:15:47;;;;;;;24.57;22.70;;;11.80;64.60;;;;;;4975201;28;20541;-88
2023/05/01 08:18:18;;;;;;;19.00;17.00;;;12.00;64.50;;;;;;4975500;28;20206;-88
2023/05/01 08:20:45;;;;;;;16.63;15.17;;;12.20;65.10;;;;;;4976951;28;20625;-88
2023/05/01 08:23:11;;;;;;;20.53;16.93;;;12.40;65.70;;;;;;4976629;28;20181;-88
2023/05/01 08:25:36;;;;;;;21.13;13.70;;;12.50;64.30;;;;;;4975630;28;20210;-88
2023/05/01 08:28:02;;;;;;;16.47;14.23;;;12.80;64.40;;;;;;4975229;28;20574;-88
2023/05/01 08:30:28;;;;;;;16.30;14.70;;;13.00;63.60;;;;;;4976780;28;20258;-86
2023/05/01 08:32:53;;;;;;;15.37;13.97;;;13.20;62.90;;;;;;4975590;28;20649;-88
2023/05/01 08:35:19;;;;;;;15.73;14.37;;;13.30;62.50;;;;;;4975455;28;20214;-88
2023/05/01 08:37:45;;;;;;;16.03;14.57;;;13.30;61.80;;;;;;4976234;28;20222;-88
2023/05/01 08:40:11;;;;;;;15.37;13.90;;;13.50;60.80;;;;;;4976336;28;20609;-88
2023/05/01 08:42:37;;;;;;;15.40;14.00;;;13.40;59.00;;;;;;4976320;28;20217;-88
2023/05/01 08:45:07;;;;;;;16.47;14.87;;;13.40;57.90;;;;;;4974905;28;20206;-87
2023/05/01 08:47:38;;;;;;;17.13;15.63;;;13.70;57.10;;;;;;4975021;28;20205;-87
2023/05/01 08:50:08;;;;;;;17.80;16.20;;;13.90;57.10;;;;;;4974938;28;20174;-88
2023/05/01 08:52:34;;;;;;;16.30;14.77;;;13.80;54.80;;;;;;4975057;28;20561;-89
2023/05/01 08:55:01;;;;;;;23.37;21.63;;;14.00;58.90;;;;;;4974757;28;20199;-89
2023/05/01 08:57:29;;;;;;;24.70;22.73;;;14.00;57.20;;;;;;4974821;28;20198;-89
2023/05/01 08:59:56;;;;;;;24.03;22.07;;;14.30;57.30;;;;;;4974856;28;20641;-88
2023/05/01 09:02:23;;;;;;;22.00;20.20;;;14.30;55.00;;;;;;4974769;28;20191;-90
2023/05/01 09:04:50;;;;;;;15.73;14.20;;;14.30;53.00;;;;;;4974672;28;20260;-89
2023/05/01 09:07:16;;;;;;;16.87;15.37;;;14.30;54.30;;;;;;4974588;28;20221;-90
2023/05/01 09:09:42;;;;;;;21.53;19.80;;;14.30;54.00;;;;;;4974592;28;20183;-89
2023/05/01 09:12:23;;;;;;;21.40;19.77;;;14.50;52.60;;;;;;4975128;28;20175;-90
2023/05/01 09:14:53;;;;;;;21.87;20.17;;;14.70;54.00;;;;;;4974640;28;20213;-88
2023/05/01 09:17:20;;;;;;;22.17;20.43;;;14.70;55.40;;;;;;4975755;28;20768;-88
2023/05/01 09:19:46;;;;;;;17.42;15.63;;;14.80;54.00;;;;;;4974888;28;20703;-88
2023/05/01 09:22:12;;;;;;;16.02;14.80;;;14.90;52.40;;;;;;4974626;28;20187;-89
2023/05/01 09:24:37;;;;;;;17.50;15.82;;;15.10;52.40;;;;;;4974194;28;20210;-91
2023/05/01 09:27:04;;;;;;;16.92;15.05;;;15.00;51.20;;;;;;4973580;28;20576;-89
2023/05/01 09:29:38;;;;;;;17.98;15.93;;;15.10;52.00;;;;;;4975100;28;20213;-88
2023/05/01 09:32:24;;;;;;;16.83;15.05;;;15.10;49.80;;;;;;4974761;28;20190;-89
2023/05/01 09:34:53;;;;;;;17.15;15.52;;;15.20;51.40;;;;;;4974185;28;20206;-88
2023/05/01 09:37:32;;;;;;;16.75;15.40;;;15.20;52.10;;;;;;4974255;28;20281;-88
2023/05/01 09:40:13;;;;;;;17.60;15.65;;;15.20;52.60;;;;;;4974539;28;20269;-86
2023/05/01 09:42:49;;;;;;;20.25;16.80;;;15.20;48.90;;;;;;4975372;28;20266;-88
2023/05/01 09:45:15;;;;;;;18.90;17.02;;;15.40;48.70;;;;;;4974158;28;20293;-88
2023/05/01 09:47:42;;;;;;;16.50;15.13;;;15.70;50.30;;;;;;4973806;28;20275;-88
2023/05/01 09:50:08;;;;;;;19.85;17.35;;;15.70;50.30;;;;;;4973815;28;20182;-87
2023/05/01 09:52:34;;;;;;;17.15;15.60;;;16.10;49.40;;;;;;4990082;28;20179;-88
2023/05/01 09:55:16;;;;;;;17.15;15.60;;;16.10;47.30;;;;;;4973737;28;20189;-88
2023/05/01 09:57:43;;;;;;;16.60;15.15;;;16.10;47.60;;;;;;4989829;28;20707;-88
2023/05/01 10:00:15;;;;;;;16.55;14.93;;;16.00;46.50;;;;;;4975297;28;20649;-87
2023/05/01 10:02:44;;;;;;;18.08;16.58;;;15.90;49.00;;;;;;4973831;28;20679;-87
2023/05/01 10:05:10;;;;;;;19.35;17.75;;;16.30;49.30;;;;;;4973435;28;20214;-89
2023/05/01 10:07:37;;;;;;;18.50;16.70;;;16.40;47.60;;;;;;4973473;28;20199;-88
2023/05/01 10:10:20;;;;;;;19.13;17.20;;;16.50;47.40;;;;;;4974071;28;20206;-89
2023/05/01 10:12:45;;;;;;;16.15;14.57;;;16.60;49.00;;;;;;4975027;28;20155;-89
2023/05/01 10:15:11;;;;;;;17.42;15.73;;;16.60;49.10;;;;;;4973665;28;20229;-90
2023/05/01 10:17:38;;;;;;;24.15;22.15;;;16.80;49.50;;;;;;4975311;28;20203;-90
2023/05/01 10:20:08;;;;;;;23.88;21.77;;;16.90;48.70;;;;;;4974758;28;20261;-88
2023/05/01 10:22:34;;;;;;;23.30;21.35;;;17.00;48.00;;;;;;4974734;28;20600;-88
2023/05/01 10:25:00;;;;;;;22.88;20.98;;;17.10;45.30;;;;;;4974619;28;20281;-88
2023/05/01 10:27:27;;;;;;;17.30;15.80;;;17.00;44.90;;;;;;4974906;28;20661;-88
2023/05/01 10:29:53;;;;;;;17.35;15.80;;;17.20;44.70;;;;;;4973366;28;20611;-89
2023/05/01 10:32:19;;;;;;;16.92;15.63;;;17.00;46.30;;;;;;4973516;28;20201;-86
2023/05/01 10:34:51;;;;;;;19.52;16.67;;;17.10;44.40;;;;;;4974792;28;20217;-86
2023/05/01 10:37:22;;;;;;;17.38;15.75;;;17.20;46.70;;;;;;4974349;28;20194;-85
2023/05/01 10:39:47;;;;;;;17.35;15.75;;;17.10;47.50;;;;;;4978744;28;20517;-88
2023/05/01 10:42:13;;;;;;;16.75;15.35;;;17.30;45.00;;;;;;4979651;28;20166;-88
2023/05/01 10:44:40;;;;;;;16.58;14.88;;;17.30;45.60;;;;;;4979644;28;20645;-87
2023/05/01 10:47:30;;;;;;;16.77;15.45;;;17.40;45.90;;;;;;4979599;28;20280;-87
2023/05/01 10:50:08;;;;;;;15.98;14.73;;;17.30;46.50;;;;;;4977216;28;20179;-88
2023/05/01 10:53:11;;;;;;;16.65;15.25;;;17.30;43.70;;;;;;4979961;28;20262;-87
2023/05/01 10:55:54;;;;;;;16.70;15.30;;;17.00;44.50;;;;;;4995760;28;20185;-85
2023/05/01 10:58:35;;;;;;;16.77;15.38;;;17.40;44.70;;;;;;4979474;28;20202;-86
2023/05/01 11:01:35;;;;;;;17.13;15.68;;;17.60;45.40;;;;;;4995711;28;20206;-86
2023/05/01 11:04:04;;;;;;;17.15;15.60;;;17.50;42.20;;;;;;4995561;28;20182;-86
2023/05/01 11:06:30;;;;;;;16.98;15.55;;;17.70;43.70;;;;;;4980667;28;20194;-87
2023/05/01 11:08:56;;;;;;;23.60;21.20;;;17.80;42.50;;;;;;4979400;28;20170;-86
2023/05/01 11:11:21;;;;;;;22.80;21.00;;;17.50;42.40;;;;;;4979380;28;20614;-86
2023/05/01 11:14:13;;;;;;;23.48;21.75;;;17.50;43.60;;;;;;4995639;28;20174;-86
2023/05/01 11:16:45;;;;;;;27.83;24.02;;;17.80;43.50;;;;;;4977756;28;20211;-85
2023/05/01 11:19:19;;;;;;;16.42;15.00;;;17.80;43.10;;;;;;4979307;28;20186;-87
2023/05/01 11:21:45;;;;;;;17.23;15.63;;;17.70;43.80;;;;;;4995594;28;20178;-87
2023/05/01 11:24:11;;;;;;;25.55;23.10;;;17.80;42.70;;;;;;4979312;28;20258;-87
2023/05/01 11:26:38;;;;;;;23.60;21.80;;;18.00;43.30;;;;;;4979146;28;20190;-87
2023/05/01 11:29:05;;;;;;;23.88;21.70;;;18.20;41.80;;;;;;4979260;28;20229;-87
2023/05/01 11:31:31;;;;;;;24.20;22.40;;;18.20;44.30;;;;;;4980346;28;20170;-87
2023/05/01 11:33:58;;;;;;;17.98;16.00;;;18.00;41.70;;;;;;4979211;28;20209;-87
2023/05/01 11:36:25;;;;;;;17.63;15.13;;;18.10;43.70;;;;;;4980335;28;20170;-87
2023/05/01 11:38:53;;;;;;;16.63;15.23;;;18.00;42.90;;;;;;4979265;28;20298;-87
2023/05/01 11:41:22;;;;;;;17.25;15.55;;;18.10;43.50;;;;;;4979067;28;20237;-87
2023/05/01 11:43:52;;;;;;;16.40;15.15;;;18.30;41.80;;;;;;4979912;28;20198;-87
2023/05/01 11:46:29;;;;;;;16.60;15.45;;;18.00;42.30;;;;;;4995481;28;20198;-87
2023/05/01 11:48:56;;;;;;;20.05;16.77;;;17.80;42.90;;;;;;4979326;28;20170;-87
2023/05/01 11:51:23;;;;;;;16.73;15.32;;;18.00;43.40;;;;;;4976539;28;20182;-87
2023/05/01 11:53:59;;;;;;;16.63;15.18;;;18.10;42.40;;;;;;4976100;28;20253;-88
2023/05/01 11:56:25;;;;;;;17.75;15.80;;;18.00;42.80;;;;;;4993010;28;20206;-87
2023/05/01 11:58:51;;;;;;;16.92;15.43;;;17.80;44.40;;;;;;4975944;28;20545;-87
2023/05/01 12:01:17;;;;;;;17.25;15.65;;;17.80;42.90;;;;;;4977454;28;20178;-87
2023/05/01 12:03:43;;;;;;;16.65;15.05;;;18.00;41.80;;;;;;4975931;28;20186;-87
2023/05/01 12:06:12;;;;;;;16.75;15.23;;;18.10;44.90;;;;;;4975617;28;20206;-88
2023/05/01 12:08:50;;;;;;;16.00;14.70;;;17.70;41.70;;;;;;4976496;28;20630;-89
2023/05/01 12:11:16;;;;;;;16.17;14.85;;;17.60;41.80;;;;;;4975802;28;20182;-87
2023/05/01 12:13:42;;;;;;;15.55;14.32;;;17.50;43.70;;;;;;4975633;28;20206;-87
2023/05/01 12:16:08;;;;;;;21.05;19.60;;;17.70;45.60;;;;;;4976743;28;20171;-87
2023/05/01 12:18:34;;;;;;;20.80;19.20;;;17.60;44.40;;;;;;4975634;28;20667;-87
2023/05/01 12:21:00;;;;;;;21.02;19.52;;;17.90;42.30;;;;;;4975574;28;20273;-87
2023/05/01 12:23:38;;;;;;;15.68;14.10;;;18.20;43.50;;;;;;4975482;28;20611;-87
2023/05/01 12:26:24;;;;;;;15.60;14.25;;;18.30;42.40;;;;;;4976228;28;20202;-87
2023/05/01 12:28:57;;;;;;;20.63;18.92;;;18.30;41.60;;;;;;4975523;28;20178;-88
2023/05/01 12:31:24;;;;;;;21.15;19.55;;;18.70;43.30;;;;;;4975413;28;20250;-87
2023/05/01 12:34:00;;;;;;;21.83;19.95;;;18.60;42.60;;;;;;4976496;28;20591;-87
2023/05/01 12:36:28;;;;;;;21.02;19.58;;;19.10;44.00;;;;;;4976460;28;20195;-88
2023/05/01 12:39:07;;;;;;;15.60;14.18;;;19.00;42.10;;;;;;4991441;28;20269;-87